Time;durP1;ratioP1;P1;durP2;ratioP2;P2;SDS_P1;SDS_P2;PMS_P1;PMS_P2;Temp;Humidity;BMP_temperature;BMP_pressure;BME280_temperature;BME280_humidity;BME280_pressure;Samples;Min_cycle;Max_cycle;Signal;HPM_P1;HPM_P2
2024/01/18 00:04:19;;;;;;;13.45;12.10;;;;;;;-0.40;100.00;95833.53;15294935;19;20089;-63
2024/01/18 00:09:44;;;;;;;11.82;10.68;;;;;;;-0.38;100.00;95844.81;15292697;19;20578;-63
2024/01/18 00:15:12;;;;;;;12.73;11.43;;;;;;;-0.36;100.00;95848.13;15286122;19;20194;-64
2024/01/18 00:20:37;;;;;;;13.13;11.82;;;;;;;-0.35;100.00;95863.84;15288598;19;20129;-63
2024/01/18 00:26:02;;;;;;;11.90;10.70;;;;;;;-0.36;100.00;95862.16;15287579;19;20097;-64
2024/01/18 00:31:30;;;;;;;11.43;10.23;;;;;;;-0.35;100.00;95873.56;15290772;19;20033;-64
2024/01/18 00:36:54;;;;;;;10.23;9.23;;;;;;;-0.46;100.00;95882.59;15286344;19;20141;-64
2024/01/18 00:42:19;;;;;;;9.82;8.82;;;;;;;-0.45;100.00;95894.84;15291519;19;20022;-63
2024/01/18 00:47:47;;;;;;;9.63;8.68;;;;;;;-0.45;100.00;95913.38;15283462;19;20006;-63
2024/01/18 00:53:12;;;;;;;9.18;8.27;;;;;;;-0.48;100.00;95921.59;15286894;19;20025;-63
2024/01/18 00:58:40;;;;;;;8.23;7.40;;;;;;;-0.54;100.00;95924.88;15288783;19;20085;-64
2024/01/18 01:04:14;;;;;;;8.92;8.02;;;;;;;-0.56;100.00;95924.19;15107102;19;10001494;-64
2024/01/18 01:09:38;;;;;;;8.48;7.68;;;;;;;-0.60;100.00;95949.28;15292655;19;20396;-64
2024/01/18 01:15:03;;;;;;;8.45;7.53;;;;;;;-0.62;100.00;95966.13;15290219;19;20021;-64
2024/01/18 01:20:30;;;;;;;8.52;7.60;;;;;;;-0.68;100.00;95972.03;15283890;19;20025;-63
2024/01/18 01:25:55;;;;;;;8.07;7.20;;;;;;;-0.72;100.00;95978.59;15283454;19;20021;-64
2024/01/18 01:31:19;;;;;;;7.68;5.70;;;;;;;-0.77;100.00;95986.16;15280678;19;20360;-64
2024/01/18 01:36:47;;;;;;;8.00;7.20;;;;;;;-0.84;100.00;95999.13;15281848;19;20033;-64
2024/01/18 01:42:12;;;;;;;7.65;6.53;;;;;;;-0.87;100.00;95991.50;15281073;19;20705;-64
2024/01/18 01:47:38;;;;;;;7.53;6.72;;;;;;;-0.87;100.00;96003.88;15289149;19;20455;-64
2024/01/18 01:53:06;;;;;;;7.60;6.47;;;;;;;-0.88;100.00;96018.09;15281703;19;20336;-64
2024/01/18 01:58:30;;;;;;;6.95;6.25;;;;;;;-0.86;100.00;96037.25;15284786;19;20079;-64
2024/01/18 02:03:57;;;;;;;6.55;5.85;;;;;;;-0.88;100.00;96044.53;15285853;19;20042;-64
2024/01/18 02:09:24;;;;;;;6.40;5.78;;;;;;;-0.89;100.00;96051.59;15284941;19;20404;-63
2024/01/18 02:14:50;;;;;;;7.82;5.85;;;;;;;-0.97;100.00;96054.16;15284644;19;20049;-63
2024/01/18 02:20:14;;;;;;;5.20;4.70;;;;;;;-1.03;100.00;96058.22;15285594;19;20021;-64
2024/01/18 02:25:42;;;;;;;6.97;4.22;;;;;;;-1.15;100.00;96065.50;15279162;19;20022;-64
2024/01/18 02:31:06;;;;;;;5.10;4.50;;;;;;;-1.20;100.00;96069.56;15287179;19;20051;-64
2024/01/18 02:36:31;;;;;;;4.85;4.35;;;;;;;-1.27;100.00;96064.88;15273815;19;20022;-64
2024/01/18 02:41:59;;;;;;;5.00;4.45;;;;;;;-1.30;100.00;96059.88;15281820;19;20073;-64
2024/01/18 02:47:32;;;;;;;5.65;4.50;;;;;;;-1.36;100.00;96063.13;15277969;19;20894;-64
2024/01/18 02:52:56;;;;;;;5.75;4.57;;;;;;;-1.44;100.00;96066.47;15284020;19;20034;-63
2024/01/18 02:58:24;;;;;;;5.65;5.07;;;;;;;-1.59;100.00;96066.09;15270527;19;20089;-63
2024/01/18 03:03:50;;;;;;;6.80;5.38;;;;;;;-1.72;100.00;96058.50;15278700;19;20397;-63
2024/01/18 03:09:15;;;;;;;6.63;5.65;;;;;;;-1.78;100.00;96076.69;15275791;19;20018;-63
2024/01/18 03:14:43;;;;;;;7.30;5.47;;;;;;;-1.87;100.00;96052.84;15275402;19;20034;-63
2024/01/18 03:20:08;;;;;;;7.25;5.72;;;;;;;-1.92;100.00;96065.63;15280735;19;20022;-61
2024/01/18 03:25:32;;;;;;;8.57;5.57;;;;;;;-1.95;100.00;96081.75;15272179;19;20150;-62
2024/01/18 03:31:01;;;;;;;8.13;6.03;;;;;;;-1.98;100.00;96079.38;15276381;19;20352;-62
2024/01/18 03:36:27;;;;;;;7.65;5.90;;;;;;;-2.01;100.00;96061.19;15280558;19;20155;-63
2024/01/18 03:41:52;;;;;;;8.30;6.10;;;;;;;-2.05;100.00;96054.53;15285322;19;20039;-63
2024/01/18 03:47:28;;;;;;;7.30;6.30;;;;;;;-2.06;100.00;96060.78;15280852;19;20030;-63
2024/01/18 03:52:53;;;;;;;9.75;7.15;;;;;;;-2.05;100.00;96054.53;15294402;19;20030;-64
2024/01/18 03:58:17;;;;;;;8.90;7.07;;;;;;;-2.04;100.00;96066.75;15298988;19;20025;-62
2024/01/18 04:03:48;;;;;;;9.98;7.25;;;;;;;-2.09;100.00;96087.44;15282640;19;20101;-63
2024/01/18 04:09:14;;;;;;;9.00;7.43;;;;;;;-2.17;100.00;96103.97;15293376;19;20092;-62
2024/01/18 04:14:43;;;;;;;10.18;8.02;;;;;;;-2.20;100.00;96107.72;15288477;19;20138;-61
2024/01/18 04:20:12;;;;;;;11.65;8.95;;;;;;;-2.21;100.00;96113.97;15290992;19;20083;-62
2024/01/18 04:25:37;;;;;;;14.02;10.32;;;;;;;-2.18;100.00;96112.84;15290069;19;20039;-58
2024/01/18 04:31:02;;;;;;;12.60;10.40;;;;;;;-2.20;100.00;96110.38;15293656;19;20018;-60
2024/01/18 04:36:29;;;;;;;15.23;10.50;;;;;;;-2.19;100.00;96101.47;15285106;19;20469;-60
2024/01/18 04:42:02;;;;;;;12.38;9.57;;;;;;;-2.19;100.00;96119.94;15293639;19;20018;-61
2024/01/18 04:47:34;;;;;;;10.90;9.10;;;;;;;-2.18;100.00;96124.25;15282575;19;20418;-63
2024/01/18 04:53:08;;;;;;;11.90;9.90;;;;;;;-2.13;100.00;96133.53;15293444;19;20118;-61
2024/01/18 04:58:36;;;;;;;11.75;9.00;;;;;;;-2.16;100.00;96132.00;15291778;19;20094;-63
2024/01/18 05:04:00;;;;;;;11.73;10.02;;;;;;;-2.25;100.00;96143.41;15291996;19;20026;-63
2024/01/18 05:09:27;;;;;;;13.57;10.20;;;;;;;-2.27;100.00;96158.53;15290400;19;20132;-63
2024/01/18 05:14:52;;;;;;;13.77;10.75;;;;;;;-2.29;100.00;96144.63;15285429;19;20134;-63
2024/01/18 05:20:17;;;;;;;16.23;11.40;;;;;;;-2.28;100.00;96136.56;15293118;19;20231;-63
2024/01/18 05:25:45;;;;;;;13.80;10.20;;;;;;;-2.26;100.00;96118.81;15287790;19;20145;-63
2024/01/18 05:31:10;;;;;;;15.63;10.10;;;;;;;-2.27;100.00;96140.88;15287533;19;20125;-62
2024/01/18 05:36:35;;;;;;;17.85;11.30;;;;;;;-2.24;100.00;96172.25;15282003;19;20146;-63
2024/01/18 05:42:02;;;;;;;14.27;11.38;;;;;;;-2.22;100.00;96164.19;15292198;19;20130;-63
2024/01/18 05:47:34;;;;;;;14.70;11.32;;;;;;;-2.24;100.00;96188.09;15288488;19;20077;-63
2024/01/18 05:52:58;;;;;;;12.00;8.88;;;;;;;-2.33;100.00;96179.19;15289011;19;20015;-62
2024/01/18 05:58:26;;;;;;;13.82;9.80;;;;;;;-2.41;100.00;96180.84;15284624;19;20013;-63
2024/01/18 06:03:53;;;;;;;15.25;10.82;;;;;;;-2.45;100.00;96166.25;15289911;19;20040;-63
2024/01/18 06:09:18;;;;;;;15.52;11.07;;;;;;;-2.39;100.00;96170.97;15279089;19;20126;-62
2024/01/18 06:14:52;;;;;;;17.05;10.75;;;;;;;-2.42;100.00;96168.63;15282058;19;20344;-63
2024/01/18 06:20:17;;;;;;;13.45;10.27;;;;;;;-2.41;100.00;96141.31;15286235;19;20075;-62
2024/01/18 06:25:42;;;;;;;14.68;11.43;;;;;;;-2.39;100.00;96195.56;15282686;19;20018;-63
2024/01/18 06:31:09;;;;;;;17.75;13.00;;;;;;;-2.32;100.00;96188.75;15287467;19;20022;-63
2024/01/18 06:36:34;;;;;;;16.88;12.32;;;;;;;-2.29;100.00;96200.84;15284254;19;20079;-63
2024/01/18 06:42:01;;;;;;;16.02;12.38;;;;;;;-2.26;100.00;96221.66;15283674;19;20006;-63
2024/01/18 06:47:36;;;;;;;15.73;12.32;;;;;;;-2.28;100.00;96222.78;15285182;19;20665;-63
2024/01/18 06:53:02;;;;;;;15.98;12.32;;;;;;;-2.28;100.00;96206.97;15286563;19;20019;-63
2024/01/18 06:58:27;;;;;;;18.88;14.23;;;;;;;-2.25;100.00;96201.41;15279646;19;20003;-64
2024/01/18 07:03:54;;;;;;;20.63;14.63;;;;;;;-2.22;100.00;96209.03;15284653;19;20126;-63
2024/01/18 07:09:20;;;;;;;19.63;14.95;;;;;;;-2.24;100.00;96203.91;15283531;19;20087;-63
2024/01/18 07:14:44;;;;;;;21.20;15.40;;;;;;;-2.21;100.00;96243.22;15276716;19;20075;-64
2024/01/18 07:20:14;;;;;;;19.77;14.00;;;;;;;-2.25;100.00;96238.34;15285856;19;20015;-63
2024/01/18 07:25:39;;;;;;;17.48;13.60;;;;;;;-2.24;100.00;96227.66;15295991;19;20074;-63
2024/01/18 07:31:05;;;;;;;15.57;11.98;;;;;;;-2.28;100.00;96233.34;15301935;19;20070;-63
2024/01/18 07:36:32;;;;;;;14.00;11.40;;;;;;;-2.36;100.00;96253.31;15320139;19;20010;-63
2024/01/18 07:41:57;;;;;;;14.95;12.27;;;;;;;-2.38;100.00;96243.84;15297027;19;20022;-63
2024/01/18 07:47:28;;;;;;;14.93;10.57;;;;;;;-2.42;100.00;96248.56;15286030;19;20019;-63
2024/01/18 07:53:01;;;;;;;13.48;10.00;;;;;;;-2.48;100.00;96257.00;15295494;19;20345;-62
2024/01/18 07:58:26;;;;;;;13.10;10.25;;;;;;;-2.52;100.00;96251.16;15298644;19;20090;-63
2024/01/18 08:03:50;;;;;;;11.38;8.60;;;;;;;-2.55;100.00;96247.94;15293545;19;20022;-62
2024/01/18 08:09:18;;;;;;;12.18;7.75;;;;;;;-2.60;100.00;96251.00;15289527;19;20021;-63
2024/01/18 08:14:44;;;;;;;9.27;7.00;;;;;;;-2.68;100.00;96269.28;15285976;19;20030;-62
2024/01/18 08:20:12;;;;;;;15.23;9.07;;;;;;;-2.73;100.00;96271.47;15282375;19;20018;-63
2024/01/18 08:25:40;;;;;;;10.55;8.70;;;;;;;-2.79;100.00;96278.09;15278824;19;20015;-62
2024/01/18 08:31:05;;;;;;;12.73;8.10;;;;;;;-2.82;100.00;96287.09;15288018;19;20146;-63
2024/01/18 08:36:30;;;;;;;16.25;10.70;;;;;;;-2.82;100.00;96286.25;15288903;19;20094;-63
2024/01/18 08:41:59;;;;;;;14.82;10.82;;;;;;;-2.75;100.00;96312.91;15294483;19;20094;-63
2024/01/18 08:47:26;;;;;;;13.77;10.82;;;;;;;-2.68;100.00;96309.63;15291973;19;20031;-63
2024/01/18 08:52:52;;;;;;;14.00;11.10;;;;;;;-2.53;100.00;96310.13;15226110;19;20015;-62
2024/01/18 08:58:20;;;;;;;14.35;10.63;;;;;;;-2.44;100.00;96319.03;15289023;19;20885;-63
2024/01/18 09:03:45;;;;;;;15.80;10.60;;;;;;;-2.36;100.00;96326.28;15294998;19;20018;-62
2024/01/18 09:09:13;;;;;;;14.05;9.85;;;;;;;-2.26;100.00;96326.34;15288439;19;20031;-62
2024/01/18 09:14:42;;;;;;;11.23;8.70;;;;;;;-2.18;100.00;96330.00;15281362;19;20031;-63
2024/01/18 09:20:09;;;;;;;12.25;7.78;;;;;;;-2.25;100.00;96318.28;15288368;19;20078;-63
2024/01/18 09:25:34;;;;;;;11.57;8.15;;;;;;;-2.25;100.00;96349.94;15278113;19;20077;-63
2024/01/18 09:31:01;;;;;;;12.00;8.73;;;;;;;-2.17;100.00;96347.47;15287100;19;20015;-63
2024/01/18 09:36:27;;;;;;;12.63;10.32;;;;;;;-1.95;100.00;96350.88;15282917;19;20046;-63
2024/01/18 09:41:53;;;;;;;10.43;9.02;;;;;;;-1.75;100.00;96366.78;15284928;19;20014;-63
2024/01/18 09:47:22;;;;;;;12.57;8.80;;;;;;;-1.52;100.00;96355.97;15284845;19;20018;-63
2024/01/18 09:52:48;;;;;;;10.88;8.70;;;;;;;-1.31;100.00;96358.50;15288036;19;20014;-62
2024/01/18 09:58:20;;;;;;;14.65;10.05;;;;;;;-1.44;100.00;96358.75;15286244;19;20078;-63
2024/01/18 10:03:47;;;;;;;11.88;9.45;;;;;;;-1.60;100.00;96354.00;15293817;19;20039;-63
2024/01/18 10:09:14;;;;;;;11.60;8.80;;;;;;;-1.66;100.00;96371.22;15293199;19;20181;-62
2024/01/18 10:14:45;;;;;;;12.68;10.27;;;;;;;-1.64;100.00;96374.56;15292945;19;20463;-63
2024/01/18 10:20:13;;;;;;;12.45;9.65;;;;;;;-1.50;100.00;96372.53;15285636;19;20050;-63
2024/01/18 10:25:39;;;;;;;13.13;11.07;;;;;;;-1.46;100.00;96365.97;15280135;19;20353;-63
2024/01/18 10:31:05;;;;;;;15.95;11.48;;;;;;;-1.49;100.00;96356.53;15286205;19;20029;-62
2024/01/18 10:36:32;;;;;;;14.48;11.65;;;;;;;-1.54;100.00;96385.16;15279103;19;20369;-60
2024/01/18 10:41:57;;;;;;;15.07;12.23;;;;;;;-1.55;100.00;96389.59;15283060;19;20026;-62
2024/01/18 10:47:28;;;;;;;12.70;10.70;;;;;;;-1.48;100.00;96381.16;15282471;19;20021;-62
2024/01/18 10:52:55;;;;;;;14.25;11.20;;;;;;;-1.51;100.00;96399.91;15285070;19;20094;-63
2024/01/18 10:58:20;;;;;;;15.18;11.40;;;;;;;-1.48;100.00;96415.47;15282065;19;20089;-61
2024/01/18 11:03:46;;;;;;;17.35;13.18;;;;;;;-1.45;100.00;96404.63;15284018;19;20018;-64
2024/01/18 11:09:15;;;;;;;15.52;11.85;;;;;;;-1.39;100.00;96409.38;15283502;19;20891;-63
2024/01/18 11:14:40;;;;;;;14.63;12.07;;;;;;;-1.43;100.00;96402.69;15284375;19;20030;-64
2024/01/18 11:20:09;;;;;;;15.48;12.40;;;;;;;-1.45;100.00;96405.47;15279965;19;20018;-63
2024/01/18 11:25:37;;;;;;;14.27;12.15;;;;;;;-1.38;100.00;96416.31;15274622;19;20027;-64
2024/01/18 11:31:02;;;;;;;14.65;12.77;;;;;;;-1.33;100.00;96432.59;15273063;19;20065;-64
2024/01/18 11:36:28;;;;;;;18.25;13.93;;;;;;;-1.36;100.00;96450.50;15281643;19;20074;-63
2024/01/18 11:41:56;;;;;;;17.65;14.55;;;;;;;-1.35;100.00;96454.81;15284370;19;20021;-63
2024/01/18 11:47:28;;;;;;;17.55;14.25;;;;;;;-1.43;100.00;96458.16;15275844;19;20014;-63
2024/01/18 11:52:53;;;;;;;18.17;14.80;;;;;;;-1.43;100.00;96459.00;15280515;19;20025;-64
2024/01/18 11:58:22;;;;;;;16.13;14.38;;;;;;;-1.29;100.00;96468.34;15281565;19;20079;-63
2024/01/18 12:03:46;;;;;;;19.42;15.25;;;;;;;-1.23;100.00;96474.88;15274392;19;20019;-64
2024/01/18 12:09:12;;;;;;;18.23;15.23;;;;;;;-1.15;100.00;96463.63;15287299;19;20018;-63
2024/01/18 12:14:42;;;;;;;16.98;15.18;;;;;;;-1.07;100.00;96465.59;15292440;19;20025;-64
2024/01/18 12:20:08;;;;;;;18.98;15.27;;;;;;;-1.01;100.00;96471.19;15297761;19;20078;-63
2024/01/18 12:25:35;;;;;;;16.65;14.40;;;;;;;-0.89;100.00;96481.63;15289382;19;20021;-64
2024/01/18 12:31:03;;;;;;;16.85;13.60;;;;;;;-0.86;100.00;96495.41;15296526;19;20085;-62
2024/01/18 12:36:30;;;;;;;17.60;14.30;;;;;;;-0.85;100.00;96507.66;15281658;19;20018;-63
2024/01/18 12:41:55;;;;;;;16.38;13.77;;;;;;;-0.83;100.00;96521.56;15293206;19;20015;-63
2024/01/18 12:47:30;;;;;;;16.92;14.63;;;;;;;-0.85;100.00;96525.28;15286792;19;20389;-64
2024/01/18 12:52:55;;;;;;;15.65;13.98;;;;;;;-0.81;100.00;96543.38;15291695;19;20361;-64
2024/01/18 12:58:24;;;;;;;11.52;9.60;;;;;;;-0.79;100.00;96549.38;15291816;19;20010;-63
2024/01/18 13:03:52;;;;;;;8.55;7.30;;;;;;;-0.83;100.00;96536.56;15289818;19;20687;-64
2024/01/18 13:09:20;;;;;;;10.02;8.40;;;;;;;-0.89;100.00;96558.28;15286295;19;20018;-64
2024/01/18 13:14:49;;;;;;;8.68;6.50;;;;;;;-0.89;100.00;96569.69;15289186;19;20023;-64
2024/01/18 13:20:17;;;;;;;7.65;6.15;;;;;;;-0.89;100.00;96579.44;15290151;19;20011;-64
2024/01/18 13:25:43;;;;;;;8.10;6.10;;;;;;;-0.86;100.00;96592.34;15288658;19;20035;-63
2024/01/18 13:31:10;;;;;;;9.48;7.65;;;;;;;-0.89;100.00;96609.31;15286955;19;20642;-64
2024/01/18 13:36:38;;;;;;;8.15;6.05;;;;;;;-0.96;100.00;96616.97;15283495;19;20014;-65
2024/01/18 13:42:04;;;;;;;8.15;6.05;;;;;;;-0.94;100.00;96630.88;15284171;19;20018;-63
2024/01/18 13:47:37;;;;;;;8.98;6.45;;;;;;;-0.88;100.00;96647.19;15285610;19;20228;-64
2024/01/18 13:53:06;;;;;;;7.55;4.95;;;;;;;-0.81;100.00;96650.97;15286487;19;20106;-64
2024/01/18 13:58:32;;;;;;;7.65;5.28;;;;;;;-0.87;100.00;96677.91;15289700;19;20089;-64
2024/01/18 14:03:57;;;;;;;9.55;6.05;;;;;;;-0.87;100.00;96683.19;15286186;19;20475;-63
2024/01/18 14:09:24;;;;;;;8.38;6.35;;;;;;;-0.87;100.00;96707.00;15289745;19;20023;-64
2024/01/18 14:14:52;;;;;;;9.55;6.72;;;;;;;-0.81;100.00;96714.41;15283017;19;20014;-64
2024/01/18 14:20:18;;;;;;;11.95;7.40;;;;;;;-0.83;100.00;96733.06;15288093;19;20022;-64
2024/01/18 14:25:45;;;;;;;10.52;6.97;;;;;;;-0.79;100.00;96745.03;15286834;19;20426;-64
2024/01/18 14:31:11;;;;;;;10.13;7.15;;;;;;;-0.86;100.00;96759.75;15287263;19;20074;-64
2024/01/18 14:36:36;;;;;;;8.48;6.75;;;;;;;-0.85;100.00;96777.28;15284460;19;20745;-62
2024/01/18 14:42:03;;;;;;;11.63;7.60;;;;;;;-0.86;100.00;96780.91;15289234;19;20010;-64
2024/01/18 14:47:36;;;;;;;13.77;8.68;;;;;;;-0.87;100.00;96794.22;15281430;19;20018;-64
2024/01/18 14:53:01;;;;;;;12.30;8.23;;;;;;;-0.85;100.00;96810.81;15286784;19;20018;-64
2024/01/18 14:58:28;;;;;;;10.80;8.25;;;;;;;-0.87;100.00;96834.75;15286583;19;20010;-63
2024/01/18 15:03:53;;;;;;;15.70;9.30;;;;;;;-0.91;100.00;96835.97;15299008;19;20014;-63
2024/01/18 15:09:19;;;;;;;13.95;10.77;;;;;;;-0.96;100.00;96851.38;15281734;19;20030;-63
2024/01/18 15:14:46;;;;;;;18.05;13.48;;;;;;;-1.04;100.00;96854.66;15282402;19;20015;-64
2024/01/18 15:20:12;;;;;;;19.83;13.95;;;;;;;-1.11;100.00;96878.13;15276659;19;20066;-64
2024/01/18 15:25:37;;;;;;;23.20;16.42;;;;;;;-1.17;100.00;96883.06;15278868;19;20029;-65
2024/01/18 15:31:04;;;;;;;22.85;16.20;;;;;;;-1.21;100.00;96900.97;15253211;19;20014;-66
2024/01/18 15:36:29;;;;;;;26.85;17.38;;;;;;;-1.27;100.00;96899.66;15274495;19;20014;-64
2024/01/18 15:41:53;;;;;;;27.10;17.55;;;;;;;-1.31;100.00;96919.38;15284834;19;20399;-65
2024/01/18 15:47:27;;;;;;;24.75;18.65;;;;;;;-1.34;100.00;96939.91;15293650;19;20025;-64
2024/01/18 15:52:53;;;;;;;27.33;20.05;;;;;;;-1.37;100.00;96962.16;15291068;19;20090;-65
2024/01/18 15:58:17;;;;;;;30.70;19.75;;;;;;;-1.42;100.00;96980.16;15294029;19;20093;-65
2024/01/18 16:03:44;;;;;;;30.55;19.70;;;;;;;-1.46;100.00;96999.81;15288369;19;20022;-64
2024/01/18 16:09:09;;;;;;;28.33;18.60;;;;;;;-1.50;100.00;97011.63;15292649;19;20014;-65
2024/01/18 16:14:34;;;;;;;28.83;20.02;;;;;;;-1.52;100.00;97013.53;15293944;19;20033;-64
2024/01/18 16:20:02;;;;;;;27.70;20.45;;;;;;;-1.57;100.00;97025.28;15294730;19;20688;-64
2024/01/18 16:25:28;;;;;;;25.95;17.88;;;;;;;-1.64;100.00;97039.94;15285830;19;20035;-65
2024/01/18 16:30:54;;;;;;;25.40;17.48;;;;;;;-1.70;100.00;97050.97;15273032;19;20021;-63
2024/01/18 16:36:21;;;;;;;21.73;14.80;;;;;;;-1.83;100.00;97056.34;15286518;19;20018;-64
2024/01/18 16:41:48;;;;;;;23.70;15.43;;;;;;;-1.97;100.00;97064.47;15287031;19;20562;-64
2024/01/18 16:47:19;;;;;;;22.48;16.00;;;;;;;-2.10;100.00;97081.22;15287144;19;20023;-65
2024/01/18 16:52:54;;;;;;;24.95;16.65;;;;;;;-2.17;100.00;97095.84;15280895;19;20078;-64
2024/01/18 16:58:19;;;;;;;24.80;16.63;;;;;;;-2.34;100.00;97103.22;15283484;19;20059;-62
2024/01/18 17:03:43;;;;;;;25.63;17.42;;;;;;;-2.46;100.00;97116.47;15259594;19;20364;-64
2024/01/18 17:09:10;;;;;;;27.70;19.13;;;;;;;-2.56;100.00;97132.97;15289736;19;20077;-64
2024/01/18 17:14:36;;;;;;;31.00;20.40;;;;;;;-2.64;100.00;97141.41;15283603;19;20077;-64
2024/01/18 17:20:01;;;;;;;29.75;20.05;;;;;;;-2.71;100.00;97166.56;15286545;19;20011;-65
2024/01/18 17:25:28;;;;;;;30.98;20.98;;;;;;;-2.76;100.00;97173.09;15275520;19;20038;-65
2024/01/18 17:30:53;;;;;;;35.90;21.60;;;;;;;-2.79;100.00;97185.53;15284483;19;20037;-65
2024/01/18 17:36:18;;;;;;;32.72;20.38;;;;;;;-2.73;100.00;97209.75;15282702;19;20025;-65
2024/01/18 17:41:46;;;;;;;31.52;19.15;;;;;;;-2.71;100.00;97215.78;15283112;19;20011;-65
2024/01/18 17:47:18;;;;;;;29.05;17.98;;;;;;;-2.72;100.00;97238.69;15279154;19;20018;-64
2024/01/18 17:52:44;;;;;;;27.60;18.15;;;;;;;-2.70;100.00;97257.00;15278453;19;20010;-65
2024/01/18 17:58:12;;;;;;;24.23;16.63;;;;;;;-2.69;100.00;97270.06;15274253;19;20006;-64
2024/01/18 18:03:38;;;;;;;23.35;16.27;;;;;;;-2.68;100.00;97271.75;15280341;19;20025;-64
2024/01/18 18:09:04;;;;;;;23.83;15.98;;;;;;;-2.65;100.00;97278.63;15281048;19;20011;-62
2024/01/18 18:14:32;;;;;;;22.70;15.65;;;;;;;-2.62;100.00;97302.13;15279339;19;20014;-63
2024/01/18 18:19:58;;;;;;;21.17;15.07;;;;;;;-2.68;100.00;97303.41;15281030;19;20018;-63
2024/01/18 18:25:24;;;;;;;22.95;16.08;;;;;;;-2.72;100.00;97309.84;15277482;19;20090;-63
2024/01/18 18:30:51;;;;;;;22.95;15.50;;;;;;;-2.74;100.00;97326.69;15274747;19;20018;-62
2024/01/18 18:36:17;;;;;;;22.00;16.45;;;;;;;-2.79;100.00;97346.34;15272010;19;20025;-62
2024/01/18 18:41:41;;;;;;;25.42;16.05;;;;;;;-2.79;100.00;97363.91;15277107;19;20098;-63
2024/01/18 18:47:08;;;;;;;26.10;16.70;;;;;;;-2.73;100.00;97374.06;15270189;19;20503;-63
2024/01/18 18:52:34;;;;;;;22.20;15.32;;;;;;;-2.69;100.00;97380.81;15278050;19;20041;-65
2024/01/18 18:57:59;;;;;;;20.00;15.13;;;;;;;-2.71;100.00;97398.53;15272339;19;20006;-64
2024/01/18 19:03:27;;;;;;;25.50;15.95;;;;;;;-2.75;100.00;97406.72;15271730;19;20014;-65
2024/01/18 19:08:52;;;;;;;20.85;14.32;;;;;;;-2.85;100.00;97411.78;15278485;19;20015;-65
2024/01/18 19:14:16;;;;;;;19.42;14.63;;;;;;;-2.95;100.00;97427.34;15274564;19;20020;-61
2024/01/18 19:19:43;;;;;;;26.90;15.50;;;;;;;-3.06;100.00;97436.00;15285684;19;20020;-67
2024/01/18 19:25:08;;;;;;;19.95;15.35;;;;;;;-3.15;100.00;97447.09;15287313;19;20025;-63
2024/01/18 19:30:33;;;;;;;23.20;15.32;;;;;;;-3.25;100.00;97455.59;15289785;19;20034;-64
2024/01/18 19:36:08;;;;;;;23.85;14.52;;;;;;;-3.34;100.00;97468.50;15283618;19;20758;-64
2024/01/18 19:41:33;;;;;;;19.52;13.77;;;;;;;-3.42;100.00;97484.81;15287641;19;20028;-62
2024/01/18 19:46:57;;;;;;;23.42;15.55;;;;;;;-3.48;100.00;97487.81;15281825;19;20038;-65
2024/01/18 19:52:25;;;;;;;21.80;15.32;;;;;;;-3.47;100.00;97511.41;15292525;19;20418;-64
2024/01/18 19:57:50;;;;;;;24.63;15.85;;;;;;;-3.45;100.00;97520.06;15286917;19;20032;-66
2024/01/18 20:03:15;;;;;;;27.27;17.20;;;;;;;-3.46;100.00;97542.06;15285025;19;20019;-68
2024/01/18 20:08:45;;;;;;;27.75;19.38;;;;;;;-3.49;100.00;97544.94;15287240;19;20493;-65
2024/01/18 20:14:11;;;;;;;30.10;19.73;;;;;;;-3.52;100.00;97555.63;15289610;19;20037;-66
2024/01/18 20:19:35;;;;;;;32.45;20.98;;;;;;;-3.55;100.00;97568.97;15285267;19;20039;-65
2024/01/18 20:25:02;;;;;;;27.73;18.95;;;;;;;-3.53;100.00;97568.91;15288675;19;20014;-64
2024/01/18 20:30:27;;;;;;;26.30;18.67;;;;;;;-3.52;100.00;97581.97;15290551;19;20018;-70
2024/01/18 20:35:52;;;;;;;26.98;17.98;;;;;;;-3.49;100.00;97597.59;15284304;19;20021;-64
2024/01/18 20:41:19;;;;;;;26.20;17.35;;;;;;;-3.49;100.00;97609.88;15281546;19;20074;-64
2024/01/18 20:46:44;;;;;;;29.20;18.67;;;;;;;-3.50;100.00;97610.81;15285046;19;20045;-66
2024/01/18 20:52:08;;;;;;;26.73;16.77;;;;;;;-3.48;100.00;97625.63;15291757;19;20353;-69
2024/01/18 20:57:37;;;;;;;27.45;18.30;;;;;;;-3.45;100.00;97641.19;15289133;19;20010;-67
2024/01/18 21:03:02;;;;;;;25.90;17.83;;;;;;;-3.40;100.00;97646.19;15280629;19;20020;-65
2024/01/18 21:08:28;;;;;;;25.30;17.63;;;;;;;-3.31;100.00;97652.69;15279310;19;20028;-61
2024/01/18 21:13:55;;;;;;;23.42;16.70;;;;;;;-3.23;100.00;97666.22;15279946;19;20029;-65
2024/01/18 21:19:20;;;;;;;25.23;16.85;;;;;;;-3.17;100.00;97665.88;15278740;19;20022;-67
2024/01/18 21:24:44;;;;;;;28.88;17.02;;;;;;;-3.11;100.00;97675.19;15280636;19;20014;-64
2024/01/18 21:30:12;;;;;;;22.45;15.85;;;;;;;-3.11;100.00;97683.09;15292462;19;20022;-64
2024/01/18 21:35:36;;;;;;;25.83;15.95;;;;;;;-3.18;100.00;97692.31;15284170;19;20025;-62
2024/01/18 21:41:01;;;;;;;24.20;16.50;;;;;;;-3.09;100.00;97704.94;15288808;19;20025;-64
2024/01/18 21:46:35;;;;;;;19.55;13.90;;;;;;;-3.02;100.00;97729.13;15279504;19;20365;-67
2024/01/18 21:52:00;;;;;;;20.33;13.73;;;;;;;-2.90;100.00;97731.00;15289504;19;20006;-64
